createdAt,value
2019-01-13T00:00:54.645Z,9.10
2019-01-13T00:03:23.689Z,9.10
2019-01-13T00:05:52.728Z,9.10
2019-01-13T00:08:22.753Z,9.10
2019-01-13T00:10:51.787Z,9.10
2019-01-13T00:13:20.760Z,9.10
2019-01-13T00:15:49.704Z,9.10
2019-01-13T00:18:19.064Z,9.10
2019-01-13T00:20:48.399Z,9.10
2019-01-13T00:23:17.457Z,9.20
2019-01-13T00:25:46.525Z,9.10
2019-01-13T00:28:15.745Z,9.10
2019-01-13T00:30:44.864Z,9.10
2019-01-13T00:33:13.759Z,9.10
2019-01-13T00:35:42.793Z,9.10
2019-01-13T00:38:11.743Z,9.10
2019-01-13T00:40:40.735Z,9.10
2019-01-13T00:43:09.768Z,9.10
2019-01-13T00:45:38.881Z,9.10
2019-01-13T00:48:07.920Z,9.10
2019-01-13T00:50:37.072Z,9.20
2019-01-13T00:53:06.053Z,9.20
2019-01-13T00:55:35.080Z,9.20
2019-01-13T00:58:04.108Z,9.20
2019-01-13T01:00:33.193Z,9.20
2019-01-13T01:03:02.138Z,9.20
2019-01-13T01:05:31.285Z,9.20
2019-01-13T01:08:02.531Z,9.30
2019-01-13T01:10:31.628Z,9.30
2019-01-13T01:13:00.751Z,9.30
2019-01-13T01:15:31.761Z,9.30
2019-01-13T01:18:00.783Z,9.30
2019-01-13T01:20:29.765Z,9.30
2019-01-13T01:22:58.786Z,9.30
2019-01-13T01:25:27.772Z,9.30
2019-01-13T01:27:56.778Z,9.30
2019-01-13T01:30:25.801Z,9.30
2019-01-13T01:32:54.878Z,9.30
2019-01-13T01:35:23.895Z,9.30
2019-01-13T01:37:52.915Z,9.40
2019-01-13T01:40:22.112Z,9.40
2019-01-13T01:42:51.097Z,9.40
2019-01-13T01:45:21.146Z,9.40
2019-01-13T01:47:50.161Z,9.40
2019-01-13T01:50:19.173Z,9.40
2019-01-13T01:52:48.140Z,9.40
2019-01-13T01:55:18.752Z,9.40
2019-01-13T01:57:48.080Z,9.40
2019-01-13T02:00:22.577Z,9.40
2019-01-13T02:02:51.601Z,9.40
2019-01-13T02:05:20.596Z,9.40
2019-01-13T02:07:51.991Z,9.40
2019-01-13T02:10:21.673Z,9.40
2019-01-13T02:12:51.321Z,9.40
2019-01-13T02:15:25.988Z,9.40
2019-01-13T02:17:55.515Z,9.40
2019-01-13T02:20:24.661Z,9.40
2019-01-13T02:22:53.700Z,9.40
2019-01-13T02:25:27.819Z,9.40
2019-01-13T02:27:56.833Z,9.40
2019-01-13T02:30:27.186Z,9.40
2019-01-13T02:32:56.301Z,9.40
2019-01-13T02:35:25.589Z,9.40
2019-01-13T02:37:54.664Z,9.50
2019-01-13T02:40:25.711Z,9.50
2019-01-13T02:42:54.756Z,9.50
2019-01-13T02:45:28.755Z,9.40
2019-01-13T02:47:57.695Z,9.40
2019-01-13T02:50:26.713Z,9.40
2019-01-13T02:52:55.705Z,9.40
2019-01-13T02:55:24.882Z,9.40
2019-01-13T02:57:53.952Z,9.40
2019-01-13T03:00:26.911Z,9.40
2019-01-13T03:02:56.017Z,9.40
2019-01-13T03:05:25.232Z,9.40
2019-01-13T03:07:54.385Z,9.40
2019-01-13T03:10:24.980Z,9.40
2019-01-13T03:12:54.255Z,9.40
2019-01-13T03:15:24.488Z,9.50
2019-01-13T03:17:53.557Z,9.40
2019-01-13T03:20:22.650Z,9.50
2019-01-13T03:22:51.695Z,9.50
2019-01-13T03:25:24.474Z,9.50
2019-01-13T03:27:53.530Z,9.50
2019-01-13T03:30:24.076Z,9.50
2019-01-13T03:32:53.131Z,9.50
2019-01-13T03:35:22.232Z,9.60
2019-01-13T03:37:51.231Z,9.60
2019-01-13T03:40:22.291Z,9.60
2019-01-13T03:42:51.525Z,9.60
2019-01-13T03:45:20.584Z,9.60
2019-01-13T03:47:49.674Z,9.60
2019-01-13T03:50:20.388Z,9.70
2019-01-13T03:52:53.196Z,9.70
2019-01-13T03:55:22.059Z,9.70
2019-01-13T03:57:51.087Z,9.70
2019-01-13T04:00:22.162Z,9.70
2019-01-13T04:02:51.155Z,9.70
2019-01-13T04:05:20.252Z,9.60
2019-01-13T04:07:49.401Z,9.70
2019-01-13T04:10:18.934Z,9.70
2019-01-13T04:12:48.016Z,9.70
2019-01-13T04:15:41.016Z,9.60
2019-01-13T04:18:10.213Z,9.60
2019-01-13T04:20:39.212Z,9.70
2019-01-13T04:23:08.236Z,9.60
2019-01-13T04:25:37.251Z,9.70
2019-01-13T04:28:06.281Z,9.70
2019-01-13T04:30:35.304Z,9.70
2019-01-13T04:33:04.438Z,9.70
2019-01-13T04:35:33.441Z,9.70
2019-01-13T04:38:02.500Z,9.70
2019-01-13T04:40:31.446Z,9.70
2019-01-13T04:43:01.102Z,9.70
2019-01-13T04:45:30.200Z,9.80
2019-01-13T04:47:59.118Z,9.80
2019-01-13T04:50:28.122Z,9.80
2019-01-13T04:52:57.187Z,9.80
2019-01-13T04:55:26.253Z,9.80
2019-01-13T04:57:55.176Z,9.80
2019-01-13T05:00:24.222Z,9.80
2019-01-13T05:02:53.209Z,9.80
2019-01-13T05:05:22.297Z,9.90
2019-01-13T05:07:51.352Z,9.90
2019-01-13T05:10:20.825Z,9.90
2019-01-13T05:12:49.830Z,9.90
2019-01-13T05:15:19.067Z,9.90
2019-01-13T05:17:50.424Z,9.90
2019-01-13T05:20:20.627Z,9.90
2019-01-13T05:22:49.838Z,9.90
2019-01-13T05:25:18.785Z,9.90
2019-01-13T05:27:48.055Z,9.90
2019-01-13T05:30:19.281Z,9.90
2019-01-13T05:32:48.648Z,9.90
2019-01-13T05:35:17.686Z,9.90
2019-01-13T05:37:46.667Z,9.90
2019-01-13T05:40:18.239Z,10.00
2019-01-13T05:42:47.585Z,10.00
2019-01-13T05:45:20.903Z,10.00
2019-01-13T05:47:49.923Z,10.00
2019-01-13T05:50:20.787Z,10.00
2019-01-13T05:52:51.500Z,9.90
2019-01-13T05:55:20.541Z,9.90
2019-01-13T05:57:49.570Z,10.00
2019-01-13T06:00:24.176Z,10.00
2019-01-13T06:02:53.261Z,10.00
2019-01-13T06:05:22.264Z,10.10
2019-01-13T06:07:51.218Z,10.00
2019-01-13T06:10:20.653Z,10.00
2019-01-13T06:12:50.105Z,10.00
2019-01-13T06:15:21.166Z,10.00
2019-01-13T06:17:50.217Z,10.10
2019-01-13T06:20:21.018Z,10.00
2019-01-13T06:22:50.083Z,10.10
2019-01-13T06:25:19.086Z,10.10
2019-01-13T06:27:48.208Z,10.10
2019-01-13T06:30:19.127Z,10.10
2019-01-13T06:32:48.101Z,10.10
2019-01-13T06:35:17.113Z,10.10
2019-01-13T06:37:46.141Z,10.10
2019-01-13T06:40:17.267Z,10.10
2019-01-13T06:42:46.224Z,10.10
2019-01-13T06:45:20.265Z,10.10
2019-01-13T06:47:49.249Z,10.10
2019-01-13T06:50:18.355Z,10.10
2019-01-13T06:52:47.320Z,10.20
2019-01-13T06:55:16.442Z,10.20
2019-01-13T06:57:45.616Z,10.20
2019-01-13T07:00:20.269Z,10.20
2019-01-13T07:02:49.282Z,10.20
2019-01-13T07:05:18.379Z,10.20
2019-01-13T07:07:47.461Z,10.20
2019-01-13T07:10:16.601Z,10.20
2019-01-13T07:12:45.724Z,10.20
2019-01-13T07:15:15.528Z,10.20
2019-01-13T07:17:45.104Z,10.20
2019-01-13T07:20:16.295Z,10.20
2019-01-13T07:22:45.413Z,10.20
2019-01-13T07:25:14.596Z,10.20
2019-01-13T07:27:43.911Z,10.20
2019-01-13T07:30:18.253Z,10.20
2019-01-13T07:32:47.416Z,10.20
2019-01-13T07:35:16.596Z,10.20
2019-01-13T07:37:46.072Z,10.20
2019-01-13T07:40:17.096Z,10.20
2019-01-13T07:42:46.243Z,10.20
2019-01-13T07:45:16.983Z,10.20
2019-01-13T07:47:49.308Z,10.20
2019-01-13T07:50:18.551Z,10.20
2019-01-13T07:52:48.123Z,10.20
2019-01-13T07:55:19.132Z,10.10
2019-01-13T07:57:48.236Z,10.10
2019-01-13T08:00:22.163Z,10.10
2019-01-13T08:02:51.476Z,10.10
2019-01-13T08:05:20.508Z,10.10
2019-01-13T08:07:50.928Z,10.10
2019-01-13T08:10:29.830Z,10.20
2019-01-13T08:12:58.945Z,10.10
2019-01-13T08:15:29.203Z,10.20
2019-01-13T08:17:58.366Z,10.20
2019-01-13T08:20:32.075Z,10.20
2019-01-13T08:23:01.541Z,10.20
2019-01-13T08:25:30.783Z,10.20
2019-01-13T08:27:59.852Z,10.20
2019-01-13T08:30:29.037Z,10.20
2019-01-13T08:32:58.193Z,10.20
2019-01-13T08:35:27.204Z,10.20
2019-01-13T08:37:56.248Z,10.20
2019-01-13T08:40:25.325Z,10.30
2019-01-13T08:42:55.475Z,10.20
2019-01-13T08:45:24.705Z,10.20
2019-01-13T08:48:20.730Z,10.30
2019-01-13T08:50:51.054Z,10.30
2019-01-13T08:53:28.109Z,10.30
2019-01-13T08:55:57.211Z,10.30
2019-01-13T08:58:26.556Z,10.30
2019-01-13T09:00:58.677Z,10.30
2019-01-13T09:03:31.107Z,10.30
2019-01-13T09:06:00.511Z,10.30
2019-01-13T09:08:30.885Z,10.30
2019-01-13T09:11:01.580Z,10.30
2019-01-13T09:13:30.731Z,10.30
2019-01-13T09:15:59.821Z,10.30
2019-01-13T09:18:29.909Z,10.30
2019-01-13T09:20:59.173Z,10.30
2019-01-13T09:23:28.379Z,10.20
2019-01-13T09:25:57.434Z,10.20
2019-01-13T09:28:30.001Z,10.20
2019-01-13T09:31:00.825Z,10.20
2019-01-13T09:33:33.657Z,10.20
2019-01-13T09:36:08.626Z,10.20
2019-01-13T09:38:37.784Z,10.10
2019-01-13T09:41:09.628Z,10.10
2019-01-13T09:43:41.671Z,10.10
2019-01-13T09:46:10.733Z,10.10
2019-01-13T09:48:39.834Z,10.10
2019-01-13T09:51:09.864Z,10.10
2019-01-13T09:53:38.895Z,10.10
2019-01-13T09:56:08.232Z,10.10
2019-01-13T09:58:37.811Z,10.10
2019-01-13T10:01:08.325Z,10.10
2019-01-13T10:03:37.312Z,10.10
2019-01-13T10:06:06.355Z,10.10
2019-01-13T10:08:35.441Z,10.10
2019-01-13T10:11:04.458Z,10.10
2019-01-13T10:13:34.145Z,10.10
2019-01-13T10:16:03.347Z,10.10
2019-01-13T10:18:32.309Z,10.10
2019-01-13T10:21:01.313Z,10.10
2019-01-13T10:23:30.371Z,10.10
2019-01-13T10:25:59.536Z,10.10
2019-01-13T10:28:28.618Z,10.10
2019-01-13T10:31:03.095Z,10.10
2019-01-13T10:33:29.052Z,10.20
2019-01-13T10:35:58.124Z,10.20
2019-01-13T10:38:27.056Z,10.20
2019-01-13T10:40:56.008Z,10.20
2019-01-13T10:43:25.115Z,10.20
2019-01-13T10:45:54.051Z,10.20
2019-01-13T10:48:23.712Z,10.30
2019-01-13T10:50:52.728Z,10.30
2019-01-13T10:53:21.813Z,10.30
2019-01-13T10:55:51.365Z,10.40
2019-01-13T10:58:21.997Z,10.30
2019-01-13T11:00:54.493Z,10.30
2019-01-13T11:03:25.839Z,10.40
2019-01-13T11:05:54.962Z,10.40
2019-01-13T11:08:24.113Z,10.50
2019-01-13T11:10:54.229Z,10.50
2019-01-13T11:13:23.237Z,10.50
2019-01-13T11:15:52.177Z,10.50
2019-01-13T11:18:22.603Z,10.60
2019-01-13T11:20:51.977Z,10.60
2019-01-13T11:23:21.053Z,10.60
2019-01-13T11:25:51.174Z,10.60
2019-01-13T11:28:20.360Z,10.60
2019-01-13T11:30:50.499Z,10.60
2019-01-13T11:33:19.696Z,10.60
2019-01-13T11:35:49.040Z,10.50
2019-01-13T11:38:19.492Z,10.60
2019-01-13T11:40:49.478Z,10.60
2019-01-13T11:43:18.732Z,10.60
2019-01-13T11:45:47.756Z,10.60
2019-01-13T11:48:16.838Z,10.60
2019-01-13T11:50:45.849Z,10.70
2019-01-13T11:53:16.255Z,10.70
2019-01-13T11:55:45.261Z,10.70
2019-01-13T11:58:15.787Z,10.70
2019-01-13T12:00:47.211Z,10.70
2019-01-13T12:03:17.318Z,10.70
2019-01-13T12:05:46.381Z,10.80
2019-01-13T12:08:15.550Z,10.80
2019-01-13T12:10:44.635Z,10.80
2019-01-13T12:13:13.766Z,10.80
2019-01-13T12:15:44.087Z,10.80
2019-01-13T12:18:13.100Z,10.70
2019-01-13T12:20:42.118Z,10.70
2019-01-13T12:23:11.202Z,10.70
2019-01-13T12:25:44.827Z,10.70
2019-01-13T12:28:15.933Z,10.70
2019-01-13T12:30:45.104Z,10.70
2019-01-13T12:33:14.170Z,10.70
2019-01-13T12:35:43.532Z,10.70
2019-01-13T12:38:12.563Z,10.70
2019-01-13T12:40:41.606Z,10.70
2019-01-13T12:43:10.695Z,10.70
2019-01-13T12:45:39.764Z,10.70
2019-01-13T12:48:08.785Z,10.70
2019-01-13T12:50:37.958Z,10.70
2019-01-13T12:53:07.097Z,10.60
2019-01-13T12:58:25.728Z,10.60
2019-01-13T13:00:57.716Z,10.60
2019-01-13T13:03:35.966Z,10.60
2019-01-13T13:06:19.316Z,10.60
2019-01-13T13:08:48.237Z,10.60
2019-01-13T13:11:17.279Z,10.50
2019-01-13T13:13:46.290Z,10.50
2019-01-13T13:16:15.642Z,10.60
2019-01-13T13:18:48.384Z,10.60
2019-01-13T13:21:17.879Z,10.50
2019-01-13T13:23:47.153Z,10.50
2019-01-13T13:26:16.488Z,10.50
2019-01-13T13:28:45.808Z,10.60
2019-01-13T13:31:15.162Z,10.60
2019-01-13T13:33:44.296Z,10.60
2019-01-13T13:36:13.481Z,10.60
2019-01-13T13:38:42.682Z,10.50
2019-01-13T13:41:13.979Z,10.50
2019-01-13T13:43:52.429Z,10.50
2019-01-13T13:46:24.595Z,10.50
2019-01-13T13:48:53.709Z,10.50
2019-01-13T13:51:22.721Z,10.50
2019-01-13T13:53:53.653Z,10.50
2019-01-13T13:56:22.797Z,10.50
2019-01-13T13:58:51.768Z,10.50
2019-01-13T14:01:22.937Z,10.50
2019-01-13T14:03:51.880Z,10.50
2019-01-13T14:06:22.356Z,10.50
2019-01-13T14:08:51.343Z,10.50
2019-01-13T14:11:20.918Z,10.50
2019-01-13T14:13:50.166Z,10.50
2019-01-13T14:16:22.575Z,10.50
2019-01-13T14:18:55.977Z,10.60
2019-01-13T14:21:28.153Z,10.60
2019-01-13T14:23:57.088Z,10.60
2019-01-13T14:26:26.176Z,10.60
2019-01-13T14:28:55.249Z,10.60
2019-01-13T14:31:24.257Z,10.70
2019-01-13T14:33:53.365Z,10.60
2019-01-13T14:36:22.619Z,10.60
2019-01-13T14:38:51.663Z,10.70
2019-01-13T14:41:20.936Z,10.70
2019-01-13T14:43:50.091Z,10.70
2019-01-13T14:46:19.252Z,10.70
2019-01-13T14:48:48.257Z,10.70
2019-01-13T14:51:17.358Z,10.70
2019-01-13T14:53:46.384Z,10.70
2019-01-13T14:56:15.493Z,10.70
2019-01-13T14:58:44.429Z,10.70
2019-01-13T15:01:16.425Z,10.70
2019-01-13T15:03:48.890Z,10.70
2019-01-13T15:06:18.003Z,10.70
2019-01-13T15:08:47.227Z,10.70
2019-01-13T15:11:19.564Z,10.70
2019-01-13T15:13:48.781Z,10.70
2019-01-13T15:16:18.232Z,10.70
2019-01-13T15:18:47.261Z,10.60
2019-01-13T15:21:16.336Z,10.60
2019-01-13T15:23:45.295Z,10.60
2019-01-13T15:26:14.324Z,10.50
2019-01-13T15:28:43.517Z,10.50
2019-01-13T15:31:12.650Z,10.50
2019-01-13T15:33:41.710Z,10.50
2019-01-13T15:36:31.467Z,10.60
2019-01-13T15:41:51.505Z,10.70
2019-01-13T15:44:21.735Z,10.70
2019-01-13T15:46:55.181Z,10.60
2019-01-13T15:49:29.190Z,10.60
2019-01-13T15:51:58.322Z,10.60
2019-01-13T15:54:27.794Z,10.60
2019-01-13T15:56:57.302Z,10.60
2019-01-13T15:59:26.404Z,10.60
2019-01-13T16:01:55.526Z,10.50
2019-01-13T16:04:24.744Z,10.50
2019-01-13T16:06:53.888Z,10.40
2019-01-13T16:09:24.123Z,10.40
2019-01-13T16:11:53.226Z,10.40
2019-01-13T16:14:22.395Z,10.40
2019-01-13T16:16:55.705Z,10.40
2019-01-13T16:19:23.898Z,10.40
2019-01-13T16:21:55.676Z,10.40
2019-01-13T16:24:26.408Z,10.40
2019-01-13T16:26:55.547Z,10.40
2019-01-13T16:29:26.077Z,10.40
2019-01-13T16:31:55.221Z,10.40
2019-01-13T16:34:24.446Z,10.40
2019-01-13T16:36:53.581Z,10.40
2019-01-13T16:39:22.675Z,10.40
2019-01-13T16:41:51.922Z,10.40
2019-01-13T16:44:21.091Z,10.40
2019-01-13T16:46:53.545Z,10.40
2019-01-13T16:49:22.985Z,10.40
2019-01-13T16:51:52.197Z,10.40
2019-01-13T16:54:21.268Z,10.40
2019-01-13T16:56:51.135Z,10.40
2019-01-13T16:59:20.461Z,10.50
2019-01-13T17:01:49.798Z,10.50
2019-01-13T17:04:18.937Z,10.50
2019-01-13T17:06:48.040Z,10.40
2019-01-13T17:09:17.393Z,10.40
2019-01-13T17:11:46.598Z,10.40
2019-01-13T17:14:15.870Z,10.50
2019-01-13T17:16:44.940Z,10.50
2019-01-13T17:19:14.347Z,10.50
2019-01-13T17:21:44.929Z,10.50
2019-01-13T17:24:14.098Z,10.50
2019-01-13T17:26:43.078Z,10.40
2019-01-13T17:29:12.223Z,10.40
2019-01-13T17:31:41.371Z,10.50
2019-01-13T17:34:10.457Z,10.40
2019-01-13T17:36:39.558Z,10.50
2019-01-13T17:39:10.847Z,10.50
2019-01-13T17:41:40.130Z,10.50
2019-01-13T17:44:10.561Z,10.40
2019-01-13T17:46:39.609Z,10.40
2019-01-13T17:49:08.691Z,10.30
2019-01-13T17:51:37.736Z,10.30
2019-01-13T17:54:06.867Z,10.30
2019-01-13T17:56:36.007Z,10.30
2019-01-13T17:59:05.056Z,10.30
2019-01-13T18:01:38.250Z,10.30
2019-01-13T18:04:07.352Z,10.20
2019-01-13T18:06:37.976Z,10.20
2019-01-13T18:09:08.942Z,10.20
2019-01-13T18:11:38.081Z,10.20
2019-01-13T18:14:07.166Z,10.20
2019-01-13T18:16:36.246Z,10.20
2019-01-13T18:19:05.290Z,10.20
2019-01-13T18:21:34.678Z,10.10
2019-01-13T18:24:03.799Z,10.00
2019-01-13T18:26:32.846Z,10.00
2019-01-13T18:29:01.974Z,9.90
2019-01-13T18:31:31.105Z,9.80
2019-01-13T18:34:00.212Z,9.70
2019-01-13T18:36:29.162Z,9.60
2019-01-13T18:38:58.245Z,9.60
2019-01-13T18:41:27.530Z,9.60
2019-01-13T18:43:56.604Z,9.60
2019-01-13T18:46:25.695Z,9.50
2019-01-13T18:48:56.910Z,9.50
2019-01-13T18:51:25.986Z,9.50
2019-01-13T18:53:54.934Z,9.50
2019-01-13T18:56:25.174Z,9.50
2019-01-13T18:58:54.536Z,9.50
2019-01-13T19:01:23.678Z,9.40
2019-01-13T19:03:52.875Z,9.40
2019-01-13T19:06:22.007Z,9.40
2019-01-13T19:08:52.873Z,9.40
2019-01-13T19:11:31.809Z,9.40
2019-01-13T19:14:41.953Z,9.40
2019-01-13T19:17:15.814Z,9.40
2019-01-13T19:19:47.831Z,9.40
2019-01-13T19:22:17.037Z,9.40
2019-01-13T19:24:46.297Z,9.40
2019-01-13T19:27:15.441Z,9.40
2019-01-13T19:29:46.647Z,9.30
2019-01-13T19:32:15.809Z,9.30
2019-01-13T19:34:44.869Z,9.20
2019-01-13T19:37:13.996Z,9.20
2019-01-13T19:39:43.106Z,9.30
2019-01-13T19:42:16.355Z,9.20
2019-01-13T19:44:46.204Z,9.20
2019-01-13T19:47:15.604Z,9.10
2019-01-13T19:49:45.849Z,9.10
2019-01-13T19:52:15.022Z,9.10
2019-01-13T19:54:44.052Z,9.10
2019-01-13T19:57:13.204Z,9.10
2019-01-13T19:59:43.107Z,9.10
2019-01-13T20:02:12.230Z,9.10
2019-01-13T20:04:41.260Z,9.10
2019-01-13T20:07:11.034Z,9.10
2019-01-13T20:09:42.187Z,9.10
2019-01-13T20:12:14.088Z,9.00
2019-01-13T20:14:46.540Z,9.00
2019-01-13T20:17:15.741Z,9.00
2019-01-13T20:19:45.160Z,9.00
2019-01-13T20:22:14.176Z,8.90
2019-01-13T20:24:43.144Z,9.00
2019-01-13T20:27:12.435Z,9.00
2019-01-13T20:29:43.741Z,8.90
2019-01-13T20:32:15.811Z,8.90
2019-01-13T20:34:44.949Z,8.90
2019-01-13T20:37:14.168Z,9.00
2019-01-13T20:39:44.328Z,8.90
2019-01-13T20:42:14.717Z,8.90
2019-01-13T20:44:45.143Z,8.90
2019-01-13T20:47:16.523Z,8.90
2019-01-13T20:49:45.894Z,8.90
2019-01-13T20:52:15.156Z,8.80
2019-01-13T20:54:44.400Z,8.80
2019-01-13T20:57:13.697Z,8.80
2019-01-13T20:59:45.077Z,8.80
2019-01-13T21:02:38.924Z,8.80
2019-01-13T21:05:03.116Z,8.80
2019-01-13T21:07:33.433Z,8.80
2019-01-13T21:10:08.649Z,8.80
2019-01-13T21:12:38.009Z,8.90
2019-01-13T21:15:09.083Z,8.90
2019-01-13T21:17:41.943Z,8.90
2019-01-13T21:20:14.281Z,9.00
2019-01-13T21:22:45.423Z,9.00
2019-01-13T21:25:15.324Z,9.00
2019-01-13T21:27:50.058Z,8.90
2019-01-13T21:30:24.562Z,8.90
2019-01-13T21:32:54.939Z,8.90
2019-01-13T21:35:33.386Z,8.90
2019-01-13T21:37:54.856Z,8.90
2019-01-13T21:40:24.329Z,8.90
2019-01-13T21:42:53.445Z,8.90
2019-01-13T21:45:22.672Z,8.90
2019-01-13T21:47:54.486Z,8.90
2019-01-13T21:50:24.266Z,8.90
2019-01-13T21:52:54.155Z,8.90
2019-01-13T21:55:23.346Z,8.90
2019-01-13T21:57:52.372Z,8.90
2019-01-13T22:00:23.679Z,8.90
2019-01-13T22:02:54.944Z,9.00
2019-01-13T22:05:24.889Z,9.00
2019-01-13T22:07:55.406Z,9.00
2019-01-13T22:10:24.816Z,9.00
2019-01-13T22:12:55.741Z,9.00
2019-01-13T22:15:27.819Z,8.90
2019-01-13T22:18:00.509Z,9.00
2019-01-13T22:20:30.343Z,9.00
2019-01-13T22:23:02.763Z,8.90
2019-01-13T22:25:32.113Z,9.00
2019-01-13T22:28:01.555Z,9.00
2019-01-13T22:30:30.660Z,8.90
2019-01-13T22:32:59.563Z,8.90
2019-01-13T22:35:28.893Z,8.80
2019-01-13T22:37:58.993Z,8.80
2019-01-13T22:40:28.828Z,8.80
2019-01-13T22:42:58.436Z,8.70
2019-01-13T22:45:27.552Z,8.80
2019-01-13T22:47:56.603Z,8.80
2019-01-13T22:50:25.650Z,8.80
2019-01-13T22:52:54.781Z,8.80
2019-01-13T22:55:23.962Z,8.80
2019-01-13T22:57:53.577Z,8.80
2019-01-13T23:01:09.122Z,8.80
2019-01-13T23:03:38.921Z,8.70
2019-01-13T23:06:11.053Z,8.70
2019-01-13T23:08:50.020Z,8.70
2019-01-13T23:11:14.765Z,8.70
2019-01-13T23:13:46.964Z,8.70
2019-01-13T23:16:16.165Z,8.60
2019-01-13T23:21:37.594Z,8.70
2019-01-13T23:24:07.051Z,8.70
2019-01-13T23:26:38.280Z,8.70
2019-01-13T23:29:33.680Z,8.70
2019-01-13T23:32:11.073Z,8.80
2019-01-13T23:34:40.369Z,8.80
2019-01-13T23:37:09.433Z,8.80
2019-01-13T23:40:13.672Z,8.80
2019-01-13T23:42:34.744Z,8.80
2019-01-13T23:45:07.482Z,8.80
2019-01-13T23:48:17.409Z,8.80
2019-01-13T23:50:46.594Z,8.80
2019-01-13T23:53:18.408Z,8.80
2019-01-13T23:55:53.459Z,8.80
2019-01-13T23:58:22.927Z,8.80
